createdAt,value
2022-08-03T00:00:02.976Z,60.88
2022-08-03T00:01:07.365Z,61.22
2022-08-03T00:02:10.588Z,61.62
2022-08-03T00:03:13.659Z,61.66
2022-08-03T00:04:17.364Z,62.03
2022-08-03T00:05:20.537Z,62.62
2022-08-03T00:06:23.480Z,62.37
2022-08-03T00:07:26.493Z,62.73
2022-08-03T00:08:29.674Z,62.63
2022-08-03T00:09:35.734Z,62.33
2022-08-03T00:10:39.063Z,62.33
2022-08-03T00:11:42.131Z,62.63
2022-08-03T00:12:45.175Z,61.64
2022-08-03T00:13:48.271Z,62.22
2022-08-03T00:14:51.223Z,62.25
2022-08-03T00:15:54.656Z,62.09
2022-08-03T00:16:58.407Z,61.60
2022-08-03T00:18:01.521Z,61.88
2022-08-03T00:19:05.033Z,61.48
2022-08-03T00:20:08.345Z,61.65
2022-08-03T00:21:11.664Z,61.41
2022-08-03T00:22:14.695Z,61.51
2022-08-03T00:23:18.082Z,61.35
2022-08-03T00:24:21.302Z,61.20
2022-08-03T00:25:24.415Z,61.68
2022-08-03T00:26:27.477Z,61.86
2022-08-03T00:27:32.679Z,62.10
2022-08-03T00:28:37.394Z,62.48
2022-08-03T00:29:59.524Z,62.32
2022-08-03T00:31:03.340Z,62.33
2022-08-03T00:32:06.692Z,62.85
2022-08-03T00:33:13.843Z,63.13
2022-08-03T00:34:17.482Z,63.85
2022-08-03T00:35:50.351Z,64.21
2022-08-03T00:36:54.224Z,64.25
2022-08-03T00:37:57.901Z,64.79
2022-08-03T00:39:01.477Z,65.22
2022-08-03T00:40:08.243Z,65.35
2022-08-03T00:41:11.177Z,65.35
2022-08-03T00:42:18.780Z,65.88
2022-08-03T00:43:27.142Z,65.90
2022-08-03T00:44:30.097Z,66.01
2022-08-03T00:45:39.110Z,66.38
2022-08-03T00:46:42.107Z,66.59
2022-08-03T00:47:46.181Z,66.76
2022-08-03T00:48:52.763Z,66.91
2022-08-03T00:49:55.725Z,66.91
2022-08-03T00:50:59.270Z,67.36
2022-08-03T00:52:09.467Z,67.85
2022-08-03T00:53:13.766Z,68.06
2022-08-03T00:54:16.659Z,68.88
2022-08-03T00:55:19.917Z,68.95
2022-08-03T00:56:23.018Z,68.82
2022-08-03T00:57:25.923Z,68.74
2022-08-03T00:58:29.992Z,69.11
2022-08-03T00:59:32.935Z,69.30
2022-08-03T01:00:39.256Z,69.35
2022-08-03T01:01:42.529Z,69.45
2022-08-03T01:02:45.772Z,69.34
2022-08-03T01:03:48.704Z,69.60
2022-08-03T01:04:51.558Z,69.65
2022-08-03T01:06:13.570Z,69.92
2022-08-03T01:07:55.303Z,70.04
2022-08-03T01:09:12.865Z,70.13
2022-08-03T01:10:38.645Z,70.16
2022-08-03T01:12:00.828Z,70.05
2022-08-03T01:14:01.874Z,69.61
2022-08-03T01:14:50.469Z,69.94
2022-08-03T01:15:58.421Z,69.91
2022-08-03T01:17:11.871Z,69.88
2022-08-03T01:18:32.029Z,70.03
2022-08-03T01:20:03.093Z,69.88
2022-08-03T01:21:28.275Z,69.80
2022-08-03T01:23:16.140Z,69.63
2022-08-03T01:25:05.669Z,69.54
2022-08-03T01:26:48.400Z,69.65
2022-08-03T01:27:58.229Z,69.42
2022-08-03T01:29:09.735Z,68.95
2022-08-03T01:30:14.195Z,69.06
2022-08-03T01:31:24.638Z,69.15
2022-08-03T01:33:20.909Z,69.36
2022-08-03T01:34:29.015Z,69.67
2022-08-03T01:36:02.552Z,69.72
2022-08-03T01:38:26.790Z,70.25
2022-08-03T01:39:33.732Z,69.99
2022-08-03T01:40:40.143Z,70.05
2022-08-03T01:41:59.771Z,69.88
2022-08-03T01:43:07.213Z,70.11
2022-08-03T01:44:30.046Z,70.54
2022-08-03T01:45:37.463Z,70.39
2022-08-03T01:46:48.868Z,70.14
2022-08-03T01:47:54.529Z,69.85
2022-08-03T01:49:00.394Z,69.87
2022-08-03T01:50:15.648Z,70.10
2022-08-03T01:51:24.141Z,70.50
2022-08-03T01:52:49.599Z,70.42
2022-08-03T01:53:55.328Z,70.57
2022-08-03T01:55:00.299Z,70.71
2022-08-03T01:56:07.203Z,70.82
2022-08-03T01:57:12.135Z,70.72
2022-08-03T01:58:17.843Z,71.13
2022-08-03T01:59:23.694Z,70.69
2022-08-03T02:00:28.372Z,70.79
2022-08-03T02:02:32.144Z,70.85
2022-08-03T02:02:59.543Z,70.73
2022-08-03T02:04:04.595Z,70.74
2022-08-03T02:05:13.454Z,70.59
2022-08-03T02:07:02.189Z,70.53
2022-08-03T02:07:50.492Z,70.56
2022-08-03T02:08:56.380Z,70.33
2022-08-03T02:10:03.479Z,70.14
2022-08-03T02:11:07.923Z,70.43
2022-08-03T02:12:14.635Z,70.35
2022-08-03T02:13:23.126Z,70.68
2022-08-03T02:14:28.896Z,70.77
2022-08-03T02:15:34.454Z,71.05
2022-08-03T02:16:38.304Z,70.72
2022-08-03T02:17:44.909Z,70.76
2022-08-03T02:18:49.696Z,70.54
2022-08-03T02:19:57.026Z,70.65
2022-08-03T02:21:05.342Z,70.86
2022-08-03T02:22:16.567Z,70.62
2022-08-03T02:23:21.315Z,70.77
2022-08-03T02:25:34.471Z,71.24
2022-08-03T02:27:53.550Z,71.71
2022-08-03T02:29:02.698Z,71.41
2022-08-03T02:30:09.968Z,71.47
2022-08-03T02:31:18.690Z,71.71
2022-08-03T02:32:31.154Z,71.75
2022-08-03T02:33:43.529Z,71.88
2022-08-03T02:34:51.062Z,71.69
2022-08-03T02:35:56.232Z,71.75
2022-08-03T02:37:01.202Z,72.07
2022-08-03T02:38:10.964Z,71.89
2022-08-03T02:39:20.880Z,72.16
2022-08-03T02:40:28.275Z,72.12
2022-08-03T02:41:55.578Z,72.30
2022-08-03T02:43:13.172Z,72.54
2022-08-03T02:44:21.926Z,72.62
2022-08-03T02:45:28.389Z,72.44
2022-08-03T02:46:38.275Z,72.25
2022-08-03T02:47:53.797Z,72.25
2022-08-03T02:49:50.084Z,72.24
2022-08-03T02:50:31.036Z,72.50
2022-08-03T02:51:38.197Z,72.54
2022-08-03T02:52:45.423Z,72.78
2022-08-03T02:53:51.046Z,73.03
2022-08-03T02:55:00.166Z,73.21
2022-08-03T02:56:06.298Z,73.19
2022-08-03T02:57:12.157Z,73.13
2022-08-03T02:58:21.628Z,73.21
2022-08-03T02:59:26.350Z,73.05
2022-08-03T03:00:34.821Z,72.83
2022-08-03T03:01:40.253Z,73.25
2022-08-03T03:02:45.699Z,73.24
2022-08-03T03:03:52.128Z,73.18
2022-08-03T03:05:55.047Z,73.01
2022-08-03T03:06:27.511Z,73.17
2022-08-03T03:07:51.188Z,73.37
2022-08-03T03:08:59.921Z,73.17
2022-08-03T03:10:05.687Z,73.10
2022-08-03T03:11:10.599Z,73.10
2022-08-03T03:12:15.205Z,72.86
2022-08-03T03:13:21.340Z,72.90
2022-08-03T03:14:33.215Z,72.86
2022-08-03T03:15:39.599Z,73.47
2022-08-03T03:16:45.016Z,73.52
2022-08-03T03:17:54.288Z,73.17
2022-08-03T03:18:58.867Z,73.17
2022-08-03T03:20:03.139Z,72.76
2022-08-03T03:21:09.933Z,72.43
2022-08-03T03:22:15.531Z,72.54
2022-08-03T03:23:22.155Z,72.54
2022-08-03T03:24:25.837Z,72.62
2022-08-03T03:25:33.310Z,72.73
2022-08-03T03:26:40.691Z,72.59
2022-08-03T03:27:50.857Z,72.94
2022-08-03T03:28:54.356Z,72.81
2022-08-03T03:29:58.534Z,72.86
2022-08-03T03:31:01.687Z,72.68
2022-08-03T03:32:04.734Z,72.87
2022-08-03T03:33:12.866Z,72.85
2022-08-03T03:34:15.867Z,72.74
2022-08-03T03:35:19.719Z,72.45
2022-08-03T03:36:22.603Z,72.29
2022-08-03T03:37:27.287Z,71.94
2022-08-03T03:38:33.114Z,72.15
2022-08-03T03:39:36.679Z,71.93
2022-08-03T03:40:39.684Z,71.86
2022-08-03T03:41:42.866Z,72.10
2022-08-03T03:42:46.147Z,72.04
2022-08-03T03:43:50.794Z,71.98
2022-08-03T03:45:00.074Z,72.08
2022-08-03T03:46:13.526Z,71.97
2022-08-03T03:47:16.632Z,71.53
2022-08-03T03:48:19.923Z,71.63
2022-08-03T03:49:23.116Z,71.44
2022-08-03T03:50:26.420Z,71.66
2022-08-03T03:51:29.199Z,71.89
2022-08-03T03:52:33.042Z,72.05
2022-08-03T03:53:35.802Z,71.90
2022-08-03T03:54:43.180Z,71.30
2022-08-03T03:55:57.804Z,71.43
2022-08-03T03:57:05.551Z,71.00
2022-08-03T03:58:08.965Z,71.18
2022-08-03T03:59:11.890Z,71.62
2022-08-03T04:00:16.570Z,70.63
2022-08-03T04:01:19.838Z,70.57
2022-08-03T04:02:22.755Z,70.40
2022-08-03T04:03:25.438Z,70.25
2022-08-03T04:04:46.715Z,70.72
2022-08-03T04:06:09.523Z,70.89
2022-08-03T04:07:31.186Z,71.12
2022-08-03T04:08:54.642Z,70.75
2022-08-03T04:10:16.901Z,71.05
2022-08-03T04:11:34.613Z,71.06
2022-08-03T04:12:38.811Z,71.23
2022-08-03T04:13:55.506Z,71.20
2022-08-03T04:15:06.086Z,71.60
2022-08-03T04:16:12.750Z,71.35
2022-08-03T04:17:17.158Z,71.36
2022-08-03T04:18:22.763Z,71.31
2022-08-03T04:19:33.373Z,70.69
2022-08-03T04:20:39.074Z,70.71
2022-08-03T04:21:44.585Z,70.18
2022-08-03T04:22:51.187Z,70.48
2022-08-03T04:23:58.849Z,70.80
2022-08-03T04:25:09.875Z,70.92
2022-08-03T04:26:15.643Z,71.18
2022-08-03T04:27:23.604Z,70.99
2022-08-03T04:28:30.945Z,70.88
2022-08-03T04:29:38.503Z,71.62
2022-08-03T04:30:50.896Z,71.62
2022-08-03T04:31:56.067Z,71.93
2022-08-03T04:33:01.554Z,71.39
2022-08-03T04:34:05.098Z,71.50
2022-08-03T04:35:08.573Z,71.48
2022-08-03T04:36:17.269Z,71.39
2022-08-03T04:37:34.195Z,71.22
2022-08-03T04:38:53.920Z,71.02
2022-08-03T04:40:02.224Z,71.57
2022-08-03T04:41:05.250Z,71.73
2022-08-03T04:42:12.034Z,72.06
2022-08-03T04:43:18.800Z,71.85
2022-08-03T04:44:27.866Z,71.37
2022-08-03T04:45:32.992Z,71.53
2022-08-03T04:46:38.871Z,71.82
2022-08-03T04:47:50.743Z,72.06
2022-08-03T04:48:54.033Z,72.11
2022-08-03T04:51:04.988Z,71.93
2022-08-03T04:52:08.888Z,72.38
2022-08-03T04:53:11.622Z,72.45
2022-08-03T04:54:16.312Z,72.53
2022-08-03T04:55:32.083Z,72.43
2022-08-03T04:56:34.868Z,73.01
2022-08-03T04:57:37.654Z,72.10
2022-08-03T04:58:40.384Z,71.99
2022-08-03T04:59:43.275Z,72.38
2022-08-03T05:00:46.021Z,72.52
2022-08-03T05:01:48.728Z,72.05
2022-08-03T05:02:51.691Z,72.46
2022-08-03T05:03:54.377Z,72.32
2022-08-03T05:04:57.185Z,70.64
2022-08-03T05:06:09.378Z,70.17
2022-08-03T05:07:24.138Z,70.98
2022-08-03T05:08:28.404Z,71.58
2022-08-03T05:09:50.443Z,70.03
2022-08-03T05:10:59.100Z,70.10
2022-08-03T05:12:02.327Z,70.51
2022-08-03T05:13:13.139Z,69.97
2022-08-03T05:14:15.809Z,69.44
2022-08-03T05:15:18.521Z,69.30
2022-08-03T05:16:21.166Z,69.87
2022-08-03T05:17:24.140Z,69.96
2022-08-03T05:18:27.083Z,69.18
2022-08-03T05:19:30.121Z,68.55
2022-08-03T05:20:33.238Z,66.21
2022-08-03T05:21:51.793Z,66.64
2022-08-03T05:22:55.688Z,67.55
2022-08-03T05:23:58.340Z,66.67
2022-08-03T05:25:02.296Z,66.53
2022-08-03T05:26:05.115Z,65.88
2022-08-03T05:27:08.182Z,66.55
2022-08-03T05:28:12.309Z,65.39
2022-08-03T05:29:15.011Z,64.02
2022-08-03T05:30:32.600Z,63.61
2022-08-03T05:31:36.965Z,63.36
2022-08-03T05:32:39.611Z,62.64
2022-08-03T05:33:45.241Z,62.61
2022-08-03T05:34:47.914Z,62.90
2022-08-03T05:36:02.728Z,62.14
2022-08-03T05:37:07.662Z,61.88
2022-08-03T05:38:10.926Z,62.54
2022-08-03T05:39:14.566Z,62.64
2022-08-03T05:40:17.356Z,62.24
2022-08-03T05:41:36.667Z,62.31
2022-08-03T05:42:40.200Z,60.40
2022-08-03T05:43:43.130Z,59.18
2022-08-03T05:44:45.774Z,59.05
2022-08-03T05:45:48.822Z,59.64
2022-08-03T05:47:11.775Z,59.36
2022-08-03T05:48:14.619Z,58.52
2022-08-03T05:49:21.451Z,58.53
2022-08-03T05:50:24.377Z,57.56
2022-08-03T05:51:30.387Z,57.76
2022-08-03T05:52:33.027Z,57.26
2022-08-03T05:53:35.911Z,57.37
2022-08-03T05:54:56.847Z,56.85
2022-08-03T05:56:14.577Z,56.62
2022-08-03T05:57:19.334Z,56.75
2022-08-03T05:58:29.966Z,57.13
2022-08-03T05:59:38.394Z,56.96
2022-08-03T06:00:41.696Z,56.21
2022-08-03T06:01:44.409Z,56.62
2022-08-03T06:03:54.611Z,55.60
2022-08-03T06:04:57.351Z,55.67
2022-08-03T06:06:03.409Z,55.55
2022-08-03T06:07:07.627Z,55.62
2022-08-03T06:08:10.781Z,54.42
2022-08-03T06:09:18.348Z,54.71
2022-08-03T06:10:37.491Z,54.09
2022-08-03T06:11:42.221Z,54.24
2022-08-03T06:12:49.208Z,54.37
2022-08-03T06:13:51.847Z,54.08
2022-08-03T06:14:54.525Z,54.08
2022-08-03T06:15:57.234Z,54.66
2022-08-03T06:17:00.121Z,54.45
2022-08-03T06:18:02.894Z,53.46
2022-08-03T06:19:05.791Z,52.43
2022-08-03T06:20:12.359Z,52.85
2022-08-03T06:21:16.526Z,52.46
2022-08-03T06:22:19.223Z,52.55
2022-08-03T06:23:53.251Z,52.29
2022-08-03T06:24:53.475Z,52.50
2022-08-03T06:25:57.346Z,52.80
2022-08-03T06:27:00.647Z,52.54
2022-08-03T06:28:05.541Z,51.81
2022-08-03T06:29:08.603Z,51.75
2022-08-03T06:30:14.029Z,51.59
2022-08-03T06:31:18.726Z,51.79
2022-08-03T06:32:23.104Z,51.78
2022-08-03T06:34:30.151Z,50.96
2022-08-03T06:34:49.625Z,51.02
2022-08-03T06:35:52.426Z,51.55
2022-08-03T06:37:01.386Z,51.85
2022-08-03T06:38:04.965Z,51.21
2022-08-03T06:39:08.364Z,50.45
2022-08-03T06:40:13.949Z,50.06
2022-08-03T06:41:17.013Z,50.57
2022-08-03T06:42:20.629Z,50.33
2022-08-03T06:43:25.265Z,49.72
2022-08-03T06:44:27.963Z,50.01
2022-08-03T06:45:31.719Z,49.99
2022-08-03T06:46:35.478Z,50.01
2022-08-03T06:47:39.389Z,49.10
2022-08-03T06:48:47.832Z,49.08
2022-08-03T06:50:16.780Z,48.64
2022-08-03T06:51:14.219Z,49.31
2022-08-03T06:52:37.897Z,48.32
2022-08-03T06:53:39.527Z,47.98
2022-08-03T06:54:42.122Z,47.57
2022-08-03T06:55:45.457Z,48.05
2022-08-03T06:56:49.045Z,48.07
2022-08-03T06:57:52.780Z,49.41
2022-08-03T06:58:56.101Z,48.77
2022-08-03T07:00:10.870Z,47.48
2022-08-03T07:01:15.253Z,46.78
2022-08-03T07:02:21.782Z,47.07
2022-08-03T07:03:24.533Z,46.75
2022-08-03T07:04:27.252Z,46.34
2022-08-03T07:05:32.214Z,46.15
2022-08-03T07:06:34.921Z,47.26
2022-08-03T07:07:38.211Z,46.81
2022-08-03T07:08:41.432Z,47.16
2022-08-03T07:09:56.568Z,46.66
2022-08-03T07:11:04.214Z,46.25
2022-08-03T07:12:07.114Z,47.10
2022-08-03T07:13:09.855Z,46.60
2022-08-03T07:14:12.507Z,46.70
2022-08-03T07:15:20.247Z,46.13
2022-08-03T07:16:37.968Z,45.80
2022-08-03T07:17:41.263Z,45.47
2022-08-03T07:18:44.466Z,45.08
2022-08-03T07:19:47.032Z,44.80
2022-08-03T07:20:49.784Z,45.96
2022-08-03T07:21:53.570Z,45.49
2022-08-03T07:22:56.757Z,45.28
2022-08-03T07:23:59.469Z,45.90
2022-08-03T07:25:02.429Z,46.22
2022-08-03T07:26:05.456Z,45.51
2022-08-03T07:27:11.262Z,45.25
2022-08-03T07:28:14.673Z,44.13
2022-08-03T07:29:17.393Z,44.09
2022-08-03T07:30:20.133Z,44.59
2022-08-03T07:31:22.766Z,45.47
2022-08-03T07:32:26.193Z,44.66
2022-08-03T07:33:28.986Z,43.42
2022-08-03T07:34:31.839Z,43.08
2022-08-03T07:35:34.911Z,42.18
2022-08-03T07:36:38.301Z,42.64
2022-08-03T07:37:41.036Z,42.83
2022-08-03T07:38:58.528Z,42.98
2022-08-03T07:40:02.470Z,42.70
2022-08-03T07:41:05.334Z,43.04
2022-08-03T07:42:08.299Z,42.53
2022-08-03T07:43:14.275Z,43.57
2022-08-03T07:44:17.240Z,42.51
2022-08-03T07:45:19.886Z,41.83
2022-08-03T07:46:22.728Z,40.35
2022-08-03T07:47:35.014Z,40.00
2022-08-03T07:48:38.837Z,40.50
2022-08-03T07:49:41.960Z,41.18
2022-08-03T07:50:48.283Z,42.08
2022-08-03T07:52:11.032Z,42.77
2022-08-03T07:53:13.835Z,42.40
2022-08-03T07:54:16.520Z,41.50
2022-08-03T07:55:21.296Z,41.70
2022-08-03T07:56:28.275Z,42.30
2022-08-03T07:57:31.123Z,41.40
2022-08-03T07:58:37.314Z,40.43
2022-08-03T08:00:01.346Z,41.15
2022-08-03T08:01:02.858Z,40.36
2022-08-03T08:02:07.476Z,40.04
2022-08-03T08:03:10.385Z,39.34
2022-08-03T08:04:13.048Z,39.37
2022-08-03T08:05:15.818Z,40.14
2022-08-03T08:06:18.618Z,41.23
2022-08-03T08:07:21.339Z,39.83
2022-08-03T08:08:24.587Z,40.21
2022-08-03T08:09:27.266Z,40.21
2022-08-03T08:10:33.093Z,38.89
2022-08-03T08:11:39.750Z,37.64
2022-08-03T08:12:42.763Z,38.46
2022-08-03T08:13:49.300Z,39.75
2022-08-03T08:14:55.405Z,39.05
2022-08-03T08:15:58.230Z,38.07
2022-08-03T08:17:04.461Z,37.71
2022-08-03T08:18:12.957Z,37.93
2022-08-03T08:19:17.084Z,37.44
2022-08-03T08:20:28.310Z,37.15
2022-08-03T08:21:53.533Z,37.21
2022-08-03T08:23:01.317Z,37.76
2022-08-03T08:24:10.735Z,37.04
2022-08-03T08:25:16.516Z,38.68
2022-08-03T08:26:22.513Z,37.95
2022-08-03T08:27:25.632Z,37.55
2022-08-03T08:28:32.281Z,37.66
2022-08-03T08:29:35.865Z,37.18
2022-08-03T08:30:50.721Z,37.10
2022-08-03T08:31:53.434Z,37.22
2022-08-03T08:32:56.280Z,37.30
2022-08-03T08:34:04.080Z,37.35
2022-08-03T08:35:08.891Z,36.65
2022-08-03T08:36:15.219Z,35.92
2022-08-03T08:37:18.611Z,35.22
2022-08-03T08:38:23.662Z,34.81
2022-08-03T08:39:26.446Z,36.45
2022-08-03T08:40:29.300Z,35.64
2022-08-03T08:41:34.940Z,36.19
2022-08-03T08:42:40.300Z,36.62
2022-08-03T08:43:47.482Z,36.91
2022-08-03T08:44:50.216Z,36.13
2022-08-03T08:45:54.579Z,35.13
2022-08-03T08:47:00.184Z,35.47
2022-08-03T08:48:08.067Z,34.00
2022-08-03T08:49:12.929Z,33.57
2022-08-03T08:50:27.851Z,32.76
2022-08-03T08:51:51.011Z,34.29
2022-08-03T08:53:02.907Z,33.07
2022-08-03T08:54:08.007Z,32.84
2022-08-03T08:55:14.713Z,32.67
2022-08-03T08:56:18.704Z,32.90
2022-08-03T08:57:41.890Z,32.37
2022-08-03T08:58:53.264Z,32.08
2022-08-03T08:59:57.533Z,31.75
2022-08-03T09:01:00.419Z,31.42
2022-08-03T09:02:03.510Z,31.37
2022-08-03T09:03:07.148Z,31.89
2022-08-03T09:04:10.412Z,32.26
2022-08-03T09:05:18.378Z,32.65
2022-08-03T09:06:24.546Z,32.82
2022-08-03T09:07:28.881Z,31.67
2022-08-03T09:08:35.900Z,31.30
2022-08-03T09:10:08.362Z,31.42
2022-08-03T09:11:01.413Z,31.23
2022-08-03T09:12:35.094Z,30.93
2022-08-03T09:13:27.306Z,30.34
2022-08-03T09:14:35.336Z,30.61
2022-08-03T09:17:08.477Z,31.59
2022-08-03T09:18:32.949Z,32.07
2022-08-03T09:19:36.542Z,31.63
2022-08-03T09:20:39.534Z,32.38
2022-08-03T09:21:42.413Z,31.74
2022-08-03T09:22:54.779Z,31.98
2022-08-03T09:24:02.932Z,32.26
2022-08-03T09:25:24.264Z,29.81
2022-08-03T09:26:33.364Z,29.71
2022-08-03T09:27:50.596Z,29.00
2022-08-03T09:29:04.681Z,28.48
2022-08-03T09:30:33.794Z,28.20
2022-08-03T09:31:39.193Z,28.64
2022-08-03T09:32:47.723Z,29.29
2022-08-03T09:33:50.661Z,29.26
2022-08-03T09:34:58.055Z,28.62
2022-08-03T09:36:01.010Z,28.42
2022-08-03T09:37:15.319Z,28.91
2022-08-03T09:38:29.063Z,27.69
2022-08-03T09:39:41.191Z,26.99
2022-08-03T09:40:46.586Z,27.17
2022-08-03T09:42:05.795Z,28.03
2022-08-03T09:43:09.161Z,27.25
2022-08-03T09:44:24.079Z,27.53
2022-08-03T09:45:30.234Z,26.25
2022-08-03T09:46:50.177Z,26.29
2022-08-03T09:48:00.055Z,25.77
2022-08-03T09:49:13.406Z,25.73
2022-08-03T09:50:19.498Z,26.59
2022-08-03T09:51:33.190Z,26.36
2022-08-03T09:52:52.835Z,26.63
2022-08-03T09:54:00.319Z,27.55
2022-08-03T09:56:30.729Z,28.04
2022-08-03T09:56:47.741Z,28.22
2022-08-03T09:57:50.524Z,28.68
2022-08-03T09:58:53.288Z,29.81
2022-08-03T10:00:13.581Z,29.89
2022-08-03T10:01:25.287Z,32.01
2022-08-03T10:02:28.421Z,31.43
2022-08-03T10:04:02.647Z,31.86
2022-08-03T10:05:04.530Z,31.87
2022-08-03T10:06:19.559Z,32.94
2022-08-03T10:07:24.111Z,33.12
2022-08-03T10:08:33.562Z,32.83
2022-08-03T10:09:37.376Z,33.62
2022-08-03T10:10:48.592Z,33.56
2022-08-03T10:11:51.517Z,34.84
2022-08-03T10:12:58.385Z,35.22
2022-08-03T10:14:07.538Z,35.45
2022-08-03T10:16:23.486Z,35.09
2022-08-03T10:16:37.586Z,35.88
2022-08-03T10:17:40.741Z,36.70
2022-08-03T10:18:43.987Z,36.43
2022-08-03T10:19:47.549Z,36.51
2022-08-03T10:20:53.976Z,36.19
2022-08-03T10:22:01.404Z,34.79
2022-08-03T10:23:05.318Z,34.73
2022-08-03T10:24:10.785Z,34.31
2022-08-03T10:25:15.766Z,34.19
2022-08-03T10:26:22.821Z,32.88
2022-08-03T10:27:28.042Z,32.63
2022-08-03T10:28:45.028Z,32.93
2022-08-03T10:29:53.790Z,34.48
2022-08-03T10:30:56.767Z,34.21
2022-08-03T10:32:04.537Z,35.78
2022-08-03T10:33:51.668Z,35.41
2022-08-03T10:34:44.527Z,36.31
2022-08-03T10:35:53.030Z,35.92
2022-08-03T10:37:00.333Z,33.22
2022-08-03T10:38:12.725Z,32.59
2022-08-03T10:39:22.012Z,31.39
2022-08-03T10:41:52.438Z,32.79
2022-08-03T10:43:00.086Z,33.54
2022-08-03T10:44:07.626Z,33.21
2022-08-03T10:45:18.950Z,32.04
2022-08-03T10:46:22.321Z,32.51
2022-08-03T10:47:25.163Z,32.21
2022-08-03T10:48:30.335Z,31.77
2022-08-03T10:49:35.475Z,32.16
2022-08-03T10:50:41.282Z,31.54
2022-08-03T10:51:48.380Z,31.18
2022-08-03T10:53:07.512Z,31.17
2022-08-03T10:55:00.762Z,31.13
2022-08-03T10:56:35.476Z,32.48
2022-08-03T10:57:58.206Z,31.24
2022-08-03T10:59:03.888Z,33.74
2022-08-03T11:00:08.268Z,35.17
2022-08-03T11:01:15.598Z,34.94
2022-08-03T11:02:18.379Z,34.63
2022-08-03T11:03:21.095Z,33.92
2022-08-03T11:04:24.715Z,32.20
2022-08-03T11:05:29.967Z,32.24
2022-08-03T11:06:37.519Z,31.73
2022-08-03T11:07:40.871Z,30.77
2022-08-03T11:08:44.854Z,29.74
2022-08-03T11:09:49.827Z,29.12
2022-08-03T11:10:55.751Z,29.04
2022-08-03T11:11:59.472Z,29.40
2022-08-03T11:13:17.149Z,28.25
2022-08-03T11:14:21.928Z,29.26
2022-08-03T11:15:33.834Z,29.28
2022-08-03T11:16:41.762Z,30.45
2022-08-03T11:18:11.440Z,30.44
2022-08-03T11:19:22.868Z,29.31
2022-08-03T11:20:50.592Z,28.27
2022-08-03T11:21:54.435Z,28.27
2022-08-03T11:22:59.717Z,28.29
2022-08-03T11:24:06.479Z,28.35
2022-08-03T11:25:52.983Z,28.04
2022-08-03T11:26:33.200Z,29.01
2022-08-03T11:27:36.110Z,29.61
2022-08-03T11:28:40.249Z,30.65
2022-08-03T11:30:04.613Z,31.02
2022-08-03T11:31:46.797Z,30.77
2022-08-03T11:32:48.272Z,30.88
2022-08-03T11:34:10.434Z,30.63
2022-08-03T11:35:22.143Z,28.00
2022-08-03T11:36:32.220Z,29.16
2022-08-03T11:37:35.989Z,29.59
2022-08-03T11:39:16.691Z,29.80
2022-08-03T11:40:51.998Z,30.34
2022-08-03T11:41:54.774Z,28.39
2022-08-03T11:42:57.559Z,27.94
2022-08-03T11:44:00.285Z,28.39
2022-08-03T11:45:08.539Z,28.88
2022-08-03T11:46:28.353Z,28.41
2022-08-03T11:47:50.128Z,27.64
2022-08-03T11:48:59.552Z,26.40
2022-08-03T11:50:02.431Z,27.67
2022-08-03T11:51:09.455Z,28.30
2022-08-03T11:52:12.138Z,28.44
2022-08-03T11:53:17.425Z,29.67
2022-08-03T11:54:20.238Z,27.96
2022-08-03T11:55:23.743Z,27.94
2022-08-03T11:56:28.796Z,27.43
2022-08-03T11:59:17.314Z,27.10
2022-08-03T11:59:18.619Z,28.26
2022-08-03T12:00:32.774Z,29.47
2022-08-03T12:01:35.595Z,28.76
2022-08-03T12:02:38.412Z,29.13
2022-08-03T12:03:41.173Z,29.84
2022-08-03T12:04:52.535Z,30.02
2022-08-03T12:05:55.266Z,30.32
2022-08-03T12:07:00.550Z,29.99
2022-08-03T12:08:06.671Z,31.54
2022-08-03T12:09:16.690Z,30.53
2022-08-03T12:10:19.637Z,31.19
2022-08-03T12:11:23.197Z,31.44
2022-08-03T12:12:26.045Z,32.26
2022-08-03T12:14:45.435Z,31.77
2022-08-03T12:15:03.819Z,32.21
2022-08-03T12:16:07.321Z,32.22
2022-08-03T12:17:10.090Z,32.61
2022-08-03T12:18:21.034Z,32.58
2022-08-03T12:19:23.832Z,33.25
2022-08-03T12:20:34.774Z,33.36
2022-08-03T12:21:57.439Z,33.53
2022-08-03T12:23:07.156Z,33.08
2022-08-03T12:24:09.870Z,31.52
2022-08-03T12:25:27.013Z,31.81
2022-08-03T12:26:52.211Z,32.25
2022-08-03T12:28:36.294Z,31.88
2022-08-03T12:29:40.480Z,32.74
2022-08-03T12:30:43.912Z,33.12
2022-08-03T12:31:47.319Z,32.79
2022-08-03T12:32:50.218Z,32.62
2022-08-03T12:34:04.371Z,32.35
2022-08-03T12:35:07.542Z,31.64
2022-08-03T12:36:14.544Z,32.48
2022-08-03T12:37:23.394Z,32.85
2022-08-03T12:38:29.644Z,33.15
2022-08-03T12:39:33.623Z,31.49
2022-08-03T12:40:36.395Z,31.97
2022-08-03T12:41:41.698Z,32.55
2022-08-03T12:42:47.612Z,32.95
2022-08-03T12:43:50.688Z,32.50
2022-08-03T12:44:56.290Z,32.99
2022-08-03T12:46:12.750Z,34.36
2022-08-03T12:47:16.239Z,34.49
2022-08-03T12:48:19.393Z,34.68
2022-08-03T12:49:26.946Z,32.78
2022-08-03T12:50:32.014Z,32.52
2022-08-03T12:51:57.523Z,32.08
2022-08-03T12:53:04.940Z,31.84
2022-08-03T12:54:07.740Z,30.37
2022-08-03T12:55:23.707Z,29.69
2022-08-03T12:56:30.591Z,29.70
2022-08-03T12:57:43.442Z,30.25
2022-08-03T12:58:48.035Z,30.41
2022-08-03T12:59:53.407Z,30.32
2022-08-03T13:00:56.938Z,30.05
2022-08-03T13:02:00.532Z,30.70
2022-08-03T13:04:34.714Z,29.41
2022-08-03T13:05:46.853Z,29.06
2022-08-03T13:07:06.778Z,27.87
2022-08-03T13:08:23.785Z,28.16
2022-08-03T13:09:26.642Z,27.41
2022-08-03T13:10:33.597Z,27.11
2022-08-03T13:12:01.991Z,27.60
2022-08-03T13:13:04.895Z,26.38
2022-08-03T13:14:07.643Z,26.51
2022-08-03T13:15:10.520Z,28.27
2022-08-03T13:16:18.733Z,27.04
2022-08-03T13:17:22.318Z,26.70
2022-08-03T13:18:25.484Z,27.37
2022-08-03T13:19:28.348Z,26.04
2022-08-03T13:20:31.088Z,25.99
2022-08-03T13:21:33.839Z,26.56
2022-08-03T13:23:00.588Z,25.21
2022-08-03T13:24:03.884Z,25.68
2022-08-03T13:25:07.143Z,26.25
2022-08-03T13:26:10.943Z,25.98
2022-08-03T13:27:58.840Z,25.09
2022-08-03T13:28:38.791Z,25.39
2022-08-03T13:29:43.606Z,25.95
2022-08-03T13:30:46.472Z,25.47
2022-08-03T13:31:50.955Z,25.46
2022-08-03T13:32:54.235Z,25.59
2022-08-03T13:33:56.872Z,25.77
2022-08-03T13:35:00.283Z,26.91
2022-08-03T13:36:03.160Z,26.39
2022-08-03T13:37:10.121Z,26.33
2022-08-03T13:38:13.343Z,25.09
2022-08-03T13:39:20.067Z,25.18
2022-08-03T13:40:23.578Z,25.44
2022-08-03T13:41:29.088Z,26.74
2022-08-03T13:42:35.927Z,25.83
2022-08-03T13:43:40.165Z,26.09
2022-08-03T13:44:43.309Z,26.20
2022-08-03T13:45:51.192Z,26.94
2022-08-03T13:46:56.337Z,24.19
2022-08-03T13:47:59.465Z,25.70
2022-08-03T13:49:02.251Z,25.66
2022-08-03T13:50:05.505Z,25.52
2022-08-03T13:51:22.139Z,26.27
2022-08-03T13:52:25.675Z,24.81
2022-08-03T13:53:28.502Z,25.94
2022-08-03T13:54:31.383Z,26.19
2022-08-03T13:55:37.688Z,25.39
2022-08-03T13:56:40.659Z,24.10
2022-08-03T13:58:03.080Z,23.90
2022-08-03T13:59:08.210Z,24.04
2022-08-03T14:00:12.063Z,25.29
2022-08-03T14:01:15.027Z,25.17
2022-08-03T14:02:17.845Z,25.54
2022-08-03T14:03:21.479Z,25.36
2022-08-03T14:04:24.197Z,26.57
2022-08-03T14:05:26.845Z,26.64
2022-08-03T14:06:29.583Z,27.07
2022-08-03T14:07:32.344Z,27.23
2022-08-03T14:08:41.975Z,26.83
2022-08-03T14:09:44.962Z,27.53
2022-08-03T14:10:48.743Z,27.30
2022-08-03T14:12:06.882Z,28.42
2022-08-03T14:13:17.746Z,28.61
2022-08-03T14:14:23.252Z,27.78
2022-08-03T14:15:29.220Z,28.11
2022-08-03T14:16:31.987Z,28.56
2022-08-03T14:17:49.650Z,28.55
2022-08-03T14:18:52.978Z,28.67
2022-08-03T14:19:55.666Z,28.96
2022-08-03T14:21:06.309Z,28.42
2022-08-03T14:22:09.615Z,27.78
2022-08-03T14:23:12.910Z,27.75
2022-08-03T14:24:16.914Z,27.42
2022-08-03T14:25:19.692Z,28.62
2022-08-03T14:26:25.761Z,27.73
2022-08-03T14:27:28.454Z,26.87
2022-08-03T14:28:32.757Z,26.52
2022-08-03T14:29:35.444Z,26.46
2022-08-03T14:30:38.055Z,27.33
2022-08-03T14:32:11.714Z,27.82
2022-08-03T14:33:03.503Z,27.45
2022-08-03T14:34:07.823Z,29.07
2022-08-03T14:35:10.655Z,29.19
2022-08-03T14:36:13.300Z,29.22
2022-08-03T14:37:16.006Z,28.45
2022-08-03T14:38:19.246Z,27.80
2022-08-03T14:39:26.187Z,26.90
2022-08-03T14:40:28.982Z,25.92
2022-08-03T14:41:31.868Z,25.90
2022-08-03T14:42:34.648Z,25.85
2022-08-03T14:43:40.978Z,26.87
2022-08-03T14:45:09.464Z,27.54
2022-08-03T14:46:23.361Z,28.40